X  Schlie├čen METAR Luftfahrt Wetterdaten     EHKD De Kooy Airport
Temperatur
36°F Temperatur
34°F Taupunkt
93% Feuchtigkeit



Wind
18 MPS
29 KM/S
8 M/S
16 KTS



80°
O
Aktuelle Wetterlage

Unbekannt Niederschlag Unbekannt Niederschlag
Luftdruck 1001.02 (hPa) - 29.56 (inHg)
Sichtweite 5.6 (Meile) - 9 (Km)
Flughafen
Flughafen Code EHKD

Position : De Kooy Airport
Entfernung: 34 (mi)

Metar:
EHKD 050055Z AUTO 08016KT 050V110 9000 -UP BKN005 BKN006 02/01 Q1001 YLO

Zeit: 05-12-2023 01:55 CET